Time;durP1;ratioP1;P1;durP2;ratioP2;P2;SDS_P1;SDS_P2;PMS_P1;PMS_P2;Temp;Humidity;BMP_temperature;BMP_pressure;BME280_temperature;BME280_humidity;BME280_pressure;Samples;Min_cycle;Max_cycle;Signal;HPM_P1;HPM_P2
2021/09/06 00:01:52;;;;;;;29.63;17.50;;;19.30;66.40;;;;;;4985722;28;20497;-85
2021/09/06 00:04:18;;;;;;;27.20;17.70;;;19.50;66.00;;;;;;4985119;28;20203;-85
2021/09/06 00:06:44;;;;;;;31.50;17.10;;;19.60;65.40;;;;;;4983443;28;20203;-85
2021/09/06 00:09:10;;;;;;;26.73;17.33;;;19.60;65.40;;;;;;5000413;28;20418;-86
2021/09/06 00:11:35;;;;;;;27.42;17.23;;;19.50;65.30;;;;;;4980986;28;20547;-86
2021/09/06 00:14:01;;;;;;;31.60;18.87;;;19.50;65.60;;;;;;4981130;28;20214;-86
2021/09/06 00:16:27;;;;;;;32.00;18.67;;;19.40;65.70;;;;;;5003751;28;20589;-85
2021/09/06 00:18:53;;;;;;;25.60;17.20;;;19.40;65.90;;;;;;4987709;28;20419;-85
2021/09/06 00:21:19;;;;;;;31.97;17.43;;;19.30;65.90;;;;;;4989330;28;20418;-85
2021/09/06 00:23:45;;;;;;;28.27;17.50;;;19.30;66.10;;;;;;4994536;28;20199;-85
2021/09/06 00:26:10;;;;;;;30.77;17.10;;;19.30;66.20;;;;;;5012526;28;20410;-85
2021/09/06 00:28:36;;;;;;;30.13;18.47;;;19.20;66.40;;;;;;4991648;28;20182;-85
2021/09/06 00:31:02;;;;;;;35.57;20.47;;;19.10;66.80;;;;;;4981634;28;20210;-85
2021/09/06 00:33:28;;;;;;;34.70;18.90;;;19.10;67.00;;;;;;4981632;28;20221;-85
2021/09/06 00:35:54;;;;;;;30.70;18.50;;;19.10;66.80;;;;;;4978629;28;20187;-85
2021/09/06 00:38:22;;;;;;;28.38;17.23;;;19.00;67.00;;;;;;4980829;28;20187;-85
2021/09/06 00:40:49;;;;;;;28.70;18.13;;;18.90;67.50;;;;;;4979311;28;20179;-85
2021/09/06 00:43:15;;;;;;;30.02;17.48;;;18.90;67.80;;;;;;4974280;28;20246;-84
2021/09/06 00:45:41;;;;;;;28.33;17.30;;;19.00;67.50;;;;;;4977989;28;20319;-85
2021/09/06 00:48:08;;;;;;;27.58;18.48;;;19.10;67.10;;;;;;4958700;28;20203;-85
2021/09/06 00:50:36;;;;;;;31.38;18.75;;;19.10;67.10;;;;;;4958951;28;20180;-85
2021/09/06 00:53:02;;;;;;;34.13;19.85;;;19.10;67.00;;;;;;4958698;28;20206;-85
2021/09/06 00:55:29;;;;;;;34.00;19.10;;;19.20;66.60;;;;;;4960253;28;20608;-86
2021/09/06 00:57:55;;;;;;;35.75;20.02;;;19.10;66.50;;;;;;4960873;28;20231;-85
2021/09/06 01:00:21;;;;;;;32.47;19.70;;;18.90;67.10;;;;;;4976730;28;20208;-85
2021/09/06 01:02:47;;;;;;;31.70;17.97;;;18.80;67.70;;;;;;4959984;28;20963;-85
2021/09/06 01:05:14;;;;;;;38.38;20.05;;;18.80;67.80;;;;;;4977029;28;20498;-85
2021/09/06 01:07:40;;;;;;;32.00;18.80;;;19.00;67.80;;;;;;4959542;28;20262;-85
2021/09/06 01:10:09;;;;;;;34.75;18.50;;;19.10;67.30;;;;;;4960519;28;20180;-85
2021/09/06 01:12:36;;;;;;;32.25;18.85;;;19.10;67.00;;;;;;4960029;28;20196;-85
2021/09/06 01:15:03;;;;;;;30.88;18.80;;;18.90;67.30;;;;;;4979734;28;20218;-85
2021/09/06 01:17:29;;;;;;;31.27;18.52;;;19.00;67.40;;;;;;4977445;28;20257;-85
2021/09/06 01:19:55;;;;;;;33.70;18.23;;;18.90;67.40;;;;;;4961729;28;20715;-86
2021/09/06 01:22:21;;;;;;;37.13;20.33;;;18.70;67.70;;;;;;4980060;28;20219;-85
2021/09/06 01:24:47;;;;;;;29.23;17.37;;;18.60;68.20;;;;;;4946119;28;20652;-85
2021/09/06 01:27:14;;;;;;;29.73;18.37;;;18.50;68.80;;;;;;4959954;28;20474;-86
2021/09/06 01:29:40;;;;;;;29.05;18.05;;;18.50;69.20;;;;;;4960283;28;20203;-86
2021/09/06 01:32:07;;;;;;;34.40;21.48;;;18.60;69.20;;;;;;4958388;28;20569;-85
2021/09/06 01:34:33;;;;;;;30.85;18.58;;;18.70;68.70;;;;;;4976898;28;20542;-85
2021/09/06 01:36:59;;;;;;;34.70;21.10;;;18.80;68.00;;;;;;4979850;28;20202;-85
2021/09/06 01:39:25;;;;;;;31.08;18.55;;;18.80;67.90;;;;;;4981280;28;20286;-86
2021/09/06 01:41:51;;;;;;;29.90;19.07;;;18.80;67.80;;;;;;4980863;28;20651;-85
2021/09/06 01:44:16;;;;;;;31.00;18.97;;;18.80;67.90;;;;;;4981565;28;20418;-85
2021/09/06 01:46:42;;;;;;;28.37;17.00;;;18.80;67.80;;;;;;4981771;28;20345;-85
2021/09/06 01:49:08;;;;;;;34.77;18.77;;;18.80;67.70;;;;;;4983871;28;20643;-85
2021/09/06 01:51:34;;;;;;;34.87;19.30;;;18.80;67.90;;;;;;5000664;28;20502;-85
2021/09/06 01:54:00;;;;;;;32.43;18.80;;;18.50;68.40;;;;;;4985498;28;20253;-85
2021/09/06 01:56:25;;;;;;;32.77;18.23;;;18.40;69.10;;;;;;4984301;28;20179;-85
2021/09/06 01:58:52;;;;;;;34.80;19.50;;;18.40;69.20;;;;;;4984844;28;20698;-85
2021/09/06 02:01:18;;;;;;;34.90;19.98;;;18.40;69.20;;;;;;4982645;28;20190;-86
2021/09/06 02:03:43;;;;;;;33.37;20.23;;;18.30;69.60;;;;;;4982575;28;20203;-85
2021/09/06 02:06:10;;;;;;;32.07;19.50;;;18.20;69.90;;;;;;4982060;28;20426;-86
2021/09/06 02:08:36;;;;;;;35.72;18.48;;;18.20;70.00;;;;;;4982748;28;20539;-85
2021/09/06 02:11:03;;;;;;;30.77;19.23;;;18.10;70.20;;;;;;4982589;28;20206;-85
2021/09/06 02:13:28;;;;;;;36.65;19.15;;;18.20;70.10;;;;;;4981273;28;20199;-84
2021/09/06 02:15:55;;;;;;;34.27;22.17;;;18.30;69.90;;;;;;4982041;28;20187;-85
2021/09/06 02:18:20;;;;;;;44.35;20.60;;;18.40;69.40;;;;;;4984931;28;20422;-85
2021/09/06 02:20:46;;;;;;;32.77;19.47;;;18.50;69.30;;;;;;4984088;28;20294;-85
2021/09/06 02:23:12;;;;;;;30.60;19.33;;;18.40;69.00;;;;;;4983960;28;20666;-85
2021/09/06 02:25:38;;;;;;;30.47;18.60;;;18.40;69.10;;;;;;4983696;28;20207;-85
2021/09/06 02:28:04;;;;;;;35.00;19.50;;;18.40;69.10;;;;;;4982319;28;20230;-86
2021/09/06 02:30:29;;;;;;;35.03;19.97;;;18.40;69.10;;;;;;4983925;28;20611;-85
2021/09/06 02:32:55;;;;;;;34.73;20.40;;;18.40;69.10;;;;;;5003368;28;20505;-85
2021/09/06 02:35:22;;;;;;;38.97;18.33;;;18.40;69.60;;;;;;4987425;28;20634;-85
2021/09/06 02:37:48;;;;;;;29.35;19.05;;;18.20;69.50;;;;;;4979918;28;20266;-85
2021/09/06 02:40:15;;;;;;;37.10;19.57;;;18.30;69.70;;;;;;4998966;28;20176;-85
2021/09/06 02:42:42;;;;;;;35.28;18.88;;;18.30;69.70;;;;;;4981373;28;20223;-85
2021/09/06 02:45:08;;;;;;;36.00;19.25;;;18.30;69.50;;;;;;4979798;28;20191;-85
2021/09/06 02:47:34;;;;;;;36.55;20.50;;;18.30;69.60;;;;;;4979400;28;20222;-85
2021/09/06 02:50:02;;;;;;;36.60;21.00;;;18.20;69.60;;;;;;4981625;28;20263;-86
2021/09/06 02:52:29;;;;;;;42.97;21.77;;;18.20;69.70;;;;;;4977610;28;20219;-87
2021/09/06 02:54:55;;;;;;;34.97;19.38;;;18.20;69.70;;;;;;4976961;28;20207;-86
2021/09/06 02:57:21;;;;;;;29.10;18.90;;;18.00;70.00;;;;;;4976532;28;20184;-85
2021/09/06 02:59:46;;;;;;;30.50;20.80;;;18.00;70.40;;;;;;4977308;28;20198;-85
2021/09/06 03:02:12;;;;;;;32.37;19.30;;;18.10;70.30;;;;;;4979200;28;20254;-85
2021/09/06 03:04:38;;;;;;;33.80;20.43;;;18.20;69.90;;;;;;4979658;28;20184;-85
2021/09/06 03:07:03;;;;;;;28.20;19.90;;;18.00;70.00;;;;;;4996720;28;20235;-85
2021/09/06 03:09:29;;;;;;;35.10;20.27;;;18.00;70.20;;;;;;4979338;28;20267;-85
2021/09/06 03:11:55;;;;;;;32.17;20.45;;;18.00;70.10;;;;;;4979190;28;20160;-84
2021/09/06 03:14:21;;;;;;;34.83;21.40;;;18.00;70.20;;;;;;4996233;28;20215;-84
2021/09/06 03:16:47;;;;;;;40.47;21.80;;;18.00;70.20;;;;;;4979535;28;20187;-85
2021/09/06 03:19:12;;;;;;;31.80;19.43;;;17.90;70.40;;;;;;4964234;28;20285;-85
2021/09/06 03:21:38;;;;;;;33.03;19.23;;;17.80;70.80;;;;;;4978980;28;20627;-84
2021/09/06 03:24:04;;;;;;;34.72;17.80;;;17.70;71.20;;;;;;4980549;28;20202;-85
2021/09/06 03:26:30;;;;;;;29.73;17.83;;;17.70;71.30;;;;;;4983594;28;20207;-84
2021/09/06 03:28:56;;;;;;;30.67;19.67;;;17.60;71.40;;;;;;4981212;28;20454;-86
2021/09/06 03:31:22;;;;;;;34.65;20.15;;;17.60;71.50;;;;;;4979362;28;20431;-85
2021/09/06 03:33:48;;;;;;;30.93;19.87;;;17.60;71.80;;;;;;4980655;28;20208;-85
2021/09/06 03:36:15;;;;;;;39.28;21.52;;;17.50;72.00;;;;;;4972986;28;20199;-85
2021/09/06 03:38:41;;;;;;;45.45;22.70;;;17.50;72.00;;;;;;4964403;28;20183;-85
2021/09/06 03:41:07;;;;;;;41.80;21.70;;;17.50;72.10;;;;;;4963440;28;20180;-85
2021/09/06 03:43:33;;;;;;;35.93;22.50;;;17.40;72.60;;;;;;4962548;28;20223;-85
2021/09/06 03:45:58;;;;;;;37.60;20.03;;;17.40;72.50;;;;;;4962097;28;20180;-85
2021/09/06 03:48:24;;;;;;;32.50;21.23;;;17.60;72.40;;;;;;4961932;28;20467;-85
2021/09/06 03:50:50;;;;;;;35.97;20.77;;;17.70;72.00;;;;;;4961529;28;20978;-86
2021/09/06 03:53:16;;;;;;;38.63;21.73;;;17.80;71.60;;;;;;4960203;28;20619;-86
2021/09/06 03:55:41;;;;;;;32.20;20.57;;;17.90;71.20;;;;;;4961804;28;20176;-86
2021/09/06 03:58:07;;;;;;;36.53;20.50;;;18.00;70.90;;;;;;4960506;28;20179;-86
2021/09/06 04:00:33;;;;;;;33.87;19.37;;;18.00;70.70;;;;;;4960999;28;20179;-86
2021/09/06 04:02:59;;;;;;;31.63;19.93;;;18.00;70.70;;;;;;4961890;28;20450;-84
2021/09/06 04:05:25;;;;;;;36.73;21.37;;;17.90;70.70;;;;;;4963048;28;20326;-85
2021/09/06 04:07:50;;;;;;;37.03;21.27;;;17.70;70.90;;;;;;4980249;28;20279;-86
2021/09/06 04:10:16;;;;;;;36.40;21.03;;;17.50;71.60;;;;;;4961969;28;20176;-86
2021/09/06 04:12:42;;;;;;;35.40;19.77;;;17.50;72.00;;;;;;4946836;28;20664;-86
2021/09/06 04:15:10;;;;;;;32.60;20.30;;;17.50;72.10;;;;;;4965742;28;20184;-86
2021/09/06 04:17:36;;;;;;;38.78;21.85;;;17.40;72.20;;;;;;4971651;28;20698;-86
2021/09/06 04:20:03;;;;;;;41.28;21.17;;;17.50;72.30;;;;;;4974193;28;20187;-85
2021/09/06 04:22:29;;;;;;;34.75;20.30;;;17.60;71.90;;;;;;4990454;28;20207;-85
2021/09/06 04:24:54;;;;;;;36.67;18.97;;;17.70;71.70;;;;;;4978160;28;20191;-85
2021/09/06 04:27:20;;;;;;;37.13;19.97;;;17.50;71.80;;;;;;4965468;28;20254;-86
2021/09/06 04:29:46;;;;;;;35.10;20.37;;;17.30;72.40;;;;;;4962528;28;20199;-86
2021/09/06 04:32:11;;;;;;;37.40;21.47;;;17.20;72.70;;;;;;4960476;28;20245;-86
2021/09/06 04:34:37;;;;;;;40.33;22.27;;;17.30;73.00;;;;;;4977616;28;20203;-85
2021/09/06 04:37:05;;;;;;;39.95;20.05;;;17.50;72.50;;;;;;4966394;28;20186;-86
2021/09/06 04:39:31;;;;;;;37.60;20.55;;;17.50;72.20;;;;;;5000204;28;20234;-85
2021/09/06 04:41:57;;;;;;;38.87;21.27;;;17.50;72.10;;;;;;5000648;28;20171;-85
2021/09/06 04:44:22;;;;;;;33.80;21.33;;;17.60;71.90;;;;;;4986584;28;20178;-85
2021/09/06 04:46:48;;;;;;;37.60;22.67;;;17.60;71.80;;;;;;5003609;28;20302;-85
2021/09/06 04:49:14;;;;;;;38.63;22.90;;;17.50;71.90;;;;;;4984879;28;20183;-86
2021/09/06 04:51:39;;;;;;;35.00;20.30;;;17.50;71.90;;;;;;4993966;28;20275;-84
2021/09/06 04:54:05;;;;;;;42.57;22.93;;;17.50;71.80;;;;;;5000244;28;20204;-85
2021/09/06 04:56:31;;;;;;;34.27;20.73;;;17.40;71.90;;;;;;5000820;28;20194;-83
2021/09/06 04:58:56;;;;;;;39.87;22.60;;;17.50;72.10;;;;;;4986072;28;20240;-83
2021/09/06 05:01:22;;;;;;;30.53;20.37;;;17.50;72.00;;;;;;4997895;28;20168;-85
2021/09/06 05:03:48;;;;;;;38.83;23.57;;;17.40;72.00;;;;;;4998277;28;20458;-84
2021/09/06 05:06:16;;;;;;;37.78;20.13;;;17.50;72.00;;;;;;4981124;28;20172;-84
2021/09/06 05:08:42;;;;;;;38.08;22.58;;;17.50;71.90;;;;;;4981215;28;20206;-82
2021/09/06 05:11:08;;;;;;;40.00;21.63;;;17.50;72.00;;;;;;4980975;28;20207;-82
2021/09/06 05:13:34;;;;;;;39.93;20.20;;;17.50;72.00;;;;;;4997820;28;20184;-83
2021/09/06 05:16:00;;;;;;;37.20;21.53;;;17.50;71.80;;;;;;4981494;28;20172;-83
2021/09/06 05:18:26;;;;;;;40.33;23.17;;;17.50;71.80;;;;;;4981163;28;20430;-83
2021/09/06 05:20:54;;;;;;;40.17;22.20;;;17.40;71.90;;;;;;4981194;28;20403;-83
2021/09/06 05:23:19;;;;;;;39.22;22.15;;;17.40;72.10;;;;;;4973710;28;20230;-84
2021/09/06 05:25:45;;;;;;;42.43;22.70;;;17.40;72.20;;;;;;4986131;28;20175;-83
2021/09/06 05:28:11;;;;;;;38.25;21.45;;;17.50;72.10;;;;;;4973209;28;20199;-85
2021/09/06 05:30:37;;;;;;;39.67;23.17;;;17.20;72.10;;;;;;4970283;28;20250;-85
2021/09/06 05:33:04;;;;;;;42.87;22.40;;;17.30;72.50;;;;;;4973474;28;20701;-84
2021/09/06 05:35:30;;;;;;;41.20;23.65;;;17.40;72.40;;;;;;4993110;28;20168;-85
2021/09/06 05:37:56;;;;;;;39.30;22.60;;;17.30;72.30;;;;;;4970433;28;20180;-85
2021/09/06 05:40:22;;;;;;;42.65;23.42;;;17.40;72.20;;;;;;4987034;28;20435;-83
2021/09/06 05:42:48;;;;;;;40.73;22.97;;;17.30;72.40;;;;;;4969538;28;20545;-85
2021/09/06 05:45:14;;;;;;;41.40;22.60;;;17.40;72.20;;;;;;4955007;28;20184;-85
2021/09/06 05:47:40;;;;;;;40.00;22.50;;;17.50;72.20;;;;;;4970309;28;20459;-85
2021/09/06 05:50:07;;;;;;;39.27;21.93;;;17.50;72.10;;;;;;4987798;28;20184;-84
2021/09/06 05:52:33;;;;;;;44.15;23.73;;;17.90;72.10;;;;;;4969721;28;21008;-85
2021/09/06 05:54:59;;;;;;;37.97;21.57;;;18.60;70.80;;;;;;4970097;28;20218;-84
2021/09/06 05:57:24;;;;;;;36.90;21.17;;;19.30;69.00;;;;;;4971806;28;20250;-84
2021/09/06 05:59:50;;;;;;;36.20;19.73;;;20.00;66.80;;;;;;4972421;28;20273;-86
2021/09/06 06:02:16;;;;;;;38.33;21.33;;;20.80;63.60;;;;;;4980565;28;20196;-86
2021/09/06 06:04:42;;;;;;;44.83;22.03;;;21.30;61.50;;;;;;4963165;28;20434;-86
2021/09/06 06:07:08;;;;;;;34.73;22.27;;;21.90;59.60;;;;;;4962625;28;20227;-86
2021/09/06 06:09:33;;;;;;;34.93;19.90;;;22.40;57.50;;;;;;4963202;28;20211;-86
2021/09/06 06:11:59;;;;;;;31.17;19.63;;;22.70;56.50;;;;;;4964038;28;20187;-86
2021/09/06 06:14:25;;;;;;;34.80;22.10;;;22.80;55.40;;;;;;4965098;28;20195;-86
2021/09/06 06:16:51;;;;;;;38.07;21.97;;;22.80;54.10;;;;;;4966609;28;20183;-84
2021/09/06 06:19:17;;;;;;;33.03;20.63;;;22.70;54.20;;;;;;4966779;28;20188;-85
2021/09/06 06:21:44;;;;;;;41.43;19.57;;;22.60;54.20;;;;;;4996415;28;20470;-85
2021/09/06 06:24:10;;;;;;;36.00;21.37;;;22.70;54.70;;;;;;4983730;28;20195;-86
2021/09/06 06:26:35;;;;;;;36.57;21.60;;;22.90;53.90;;;;;;4972243;28;20471;-85
2021/09/06 06:29:01;;;;;;;40.23;22.10;;;23.10;53.40;;;;;;4968564;28;20640;-85
2021/09/06 06:31:27;;;;;;;35.37;23.13;;;23.10;52.80;;;;;;4968859;28;20183;-86
2021/09/06 06:33:53;;;;;;;35.83;20.43;;;22.50;54.00;;;;;;4983832;28;20206;-85
2021/09/06 06:36:18;;;;;;;40.03;22.10;;;22.30;54.80;;;;;;4974641;28;20214;-85
2021/09/06 06:38:48;;;;;;;35.70;20.87;;;21.90;55.70;;;;;;4987741;28;20179;-85
2021/09/06 06:41:14;;;;;;;47.00;23.70;;;22.00;56.00;;;;;;4988837;28;20434;-85
2021/09/06 06:43:42;;;;;;;41.20;24.00;;;21.70;56.50;;;;;;4994026;28;20508;-85
2021/09/06 06:46:07;;;;;;;38.80;22.90;;;21.70;57.40;;;;;;5010089;28;20778;-84
2021/09/06 06:48:33;;;;;;;33.60;21.30;;;21.70;57.40;;;;;;4999372;28;20427;-84
2021/09/06 06:51:00;;;;;;;36.83;23.30;;;21.50;57.80;;;;;;5020135;28;20202;-84
2021/09/06 06:53:26;;;;;;;38.27;21.80;;;20.90;59.20;;;;;;4996219;28;20477;-84
2021/09/06 06:55:53;;;;;;;37.23;22.67;;;20.60;60.30;;;;;;4987795;28;20509;-85
2021/09/06 06:58:19;;;;;;;36.10;21.87;;;20.60;60.90;;;;;;4987267;28;20266;-85
2021/09/06 07:00:45;;;;;;;41.83;24.63;;;20.70;61.20;;;;;;4987906;28;20437;-84
2021/09/06 07:03:11;;;;;;;49.20;26.38;;;20.70;61.30;;;;;;4986934;28;20303;-85
2021/09/06 07:05:36;;;;;;;38.43;23.67;;;20.50;61.60;;;;;;4987800;28;20263;-85
2021/09/06 07:08:02;;;;;;;41.77;24.03;;;20.40;62.10;;;;;;4987788;28;20207;-85
2021/09/06 07:10:28;;;;;;;43.40;24.50;;;20.30;62.80;;;;;;4987506;28;20171;-85
2021/09/06 07:12:54;;;;;;;37.47;22.70;;;20.30;63.00;;;;;;4986951;28;20199;-85
2021/09/06 07:15:20;;;;;;;42.90;23.40;;;20.20;63.20;;;;;;4987152;28;20929;-86
2021/09/06 07:17:45;;;;;;;42.40;24.40;;;20.20;63.50;;;;;;4988551;28;20419;-86
2021/09/06 07:20:12;;;;;;;40.63;23.83;;;20.30;63.80;;;;;;4987682;28;20179;-85
2021/09/06 07:22:37;;;;;;;42.20;23.58;;;20.20;63.80;;;;;;4970351;28;20199;-85
2021/09/06 07:25:05;;;;;;;38.73;24.47;;;20.20;64.10;;;;;;4987828;28;20191;-85
2021/09/06 07:27:30;;;;;;;41.08;26.10;;;20.20;63.90;;;;;;4980645;28;20219;-86
2021/09/06 07:29:56;;;;;;;42.70;23.67;;;20.20;64.10;;;;;;4980737;28;20179;-86
2021/09/06 07:32:22;;;;;;;43.03;25.20;;;20.20;64.30;;;;;;4961197;28;20235;-86
2021/09/06 07:34:47;;;;;;;41.13;25.53;;;20.10;64.60;;;;;;4964048;28;20701;-86
2021/09/06 07:37:16;;;;;;;49.23;26.67;;;20.20;65.10;;;;;;4972662;28;20159;-86
2021/09/06 07:39:51;;;;;;;40.28;24.17;;;20.20;65.50;;;;;;4996753;28;20179;-86
2021/09/06 07:42:17;;;;;;;42.92;25.10;;;20.30;65.80;;;;;;4988826;28;20274;-85
2021/09/06 07:44:43;;;;;;;39.87;23.80;;;20.50;65.90;;;;;;4988879;28;20202;-86
2021/09/06 07:47:09;;;;;;;40.83;25.30;;;20.70;65.50;;;;;;4980333;28;20221;-85
2021/09/06 07:49:41;;;;;;;42.93;25.43;;;20.80;65.20;;;;;;4988177;28;20190;-85
2021/09/06 07:52:08;;;;;;;41.70;26.60;;;20.80;64.70;;;;;;4995048;28;20446;-85
2021/09/06 07:54:34;;;;;;;37.35;23.30;;;20.70;65.10;;;;;;4985438;28;20424;-85
2021/09/06 07:57:00;;;;;;;38.30;23.90;;;20.80;64.90;;;;;;4993973;28;20187;-86
2021/09/06 07:59:27;;;;;;;46.53;25.70;;;20.90;64.70;;;;;;4985823;28;20418;-86
2021/09/06 08:01:53;;;;;;;36.93;22.23;;;21.20;64.20;;;;;;4985067;28;20529;-86
2021/09/06 08:04:19;;;;;;;42.30;25.30;;;21.30;63.40;;;;;;4985699;28;20450;-85
2021/09/06 08:06:45;;;;;;;46.70;25.00;;;21.40;63.30;;;;;;4983122;28;20571;-86
2021/09/06 08:09:13;;;;;;;40.63;25.27;;;21.50;63.20;;;;;;4967734;28;20235;-86
2021/09/06 08:11:39;;;;;;;45.20;26.47;;;21.50;62.50;;;;;;4966369;28;20557;-85
2021/09/06 08:14:05;;;;;;;42.73;24.63;;;21.60;61.70;;;;;;4966593;28;20435;-86
2021/09/06 08:16:32;;;;;;;41.70;22.90;;;21.60;61.60;;;;;;4967426;28;20530;-85
2021/09/06 08:18:58;;;;;;;40.20;23.67;;;21.70;61.20;;;;;;4966542;28;20424;-85
2021/09/06 08:21:24;;;;;;;38.60;22.10;;;21.60;60.30;;;;;;4966454;28;20423;-86
2021/09/06 08:23:50;;;;;;;36.90;24.17;;;21.60;59.70;;;;;;4966406;28;20446;-86
2021/09/06 08:26:16;;;;;;;36.17;21.80;;;21.60;59.70;;;;;;4966541;28;20494;-85
2021/09/06 08:28:42;;;;;;;40.07;24.50;;;21.60;59.60;;;;;;4966402;28;20455;-85
2021/09/06 08:31:08;;;;;;;35.90;22.13;;;21.70;59.30;;;;;;4964415;28;20270;-86
2021/09/06 08:33:34;;;;;;;40.23;22.50;;;21.70;59.10;;;;;;4963027;28;20219;-86
2021/09/06 08:36:00;;;;;;;40.60;24.70;;;21.70;58.80;;;;;;4979994;28;20453;-86
2021/09/06 08:38:25;;;;;;;43.73;26.07;;;21.70;59.10;;;;;;4995152;28;20427;-86
2021/09/06 08:40:51;;;;;;;37.17;22.77;;;21.80;58.90;;;;;;5000763;28;20182;-85
2021/09/06 08:43:17;;;;;;;37.03;23.40;;;21.70;58.80;;;;;;4999336;28;20203;-85
2021/09/06 08:45:45;;;;;;;36.17;22.63;;;21.80;58.30;;;;;;4982503;28;20437;-86
2021/09/06 08:48:11;;;;;;;35.20;22.57;;;21.80;57.50;;;;;;4981870;28;20222;-86
2021/09/06 08:50:36;;;;;;;39.43;24.97;;;21.70;57.50;;;;;;4999568;28;20425;-86
2021/09/06 08:53:02;;;;;;;41.60;23.27;;;21.90;57.60;;;;;;4991684;28;20446;-86
2021/09/06 08:55:28;;;;;;;32.60;20.60;;;22.00;57.40;;;;;;4994226;28;20514;-86
2021/09/06 08:57:54;;;;;;;39.23;23.30;;;22.20;57.30;;;;;;4992383;28;20426;-86
2021/09/06 09:00:28;;;;;;;33.43;19.70;;;22.30;57.40;;;;;;4991779;28;20187;-84
2021/09/06 09:02:54;;;;;;;38.50;20.30;;;22.30;56.60;;;;;;4985391;28;20214;-85
2021/09/06 09:05:21;;;;;;;33.17;20.10;;;22.50;57.10;;;;;;4982360;28;20426;-86
2021/09/06 09:07:54;;;;;;;36.50;22.70;;;22.30;57.20;;;;;;4955926;28;20520;-85
2021/09/06 09:10:32;;;;;;;37.43;22.97;;;22.30;56.60;;;;;;4962212;28;20487;-86
2021/09/06 09:13:09;;;;;;;31.17;18.40;;;22.40;56.70;;;;;;4962557;28;20447;-86
2021/09/06 09:15:37;;;;;;;33.20;19.67;;;22.50;55.50;;;;;;4962222;28;20911;-86
2021/09/06 09:18:06;;;;;;;31.80;18.10;;;22.40;54.80;;;;;;4964014;28;20426;-85
2021/09/06 09:20:42;;;;;;;28.93;17.47;;;22.40;54.10;;;;;;4979649;28;20419;-86
2021/09/06 09:23:09;;;;;;;24.33;15.83;;;22.60;54.60;;;;;;4962508;28;20446;-85
2021/09/06 09:25:36;;;;;;;31.83;15.33;;;22.90;53.90;;;;;;4962905;28;20427;-85
2021/09/06 09:28:03;;;;;;;24.43;15.53;;;22.90;52.50;;;;;;4979489;28;20466;-86
2021/09/06 09:30:32;;;;;;;27.37;16.70;;;22.90;51.30;;;;;;4946978;28;20819;-85
2021/09/06 09:33:11;;;;;;;28.57;16.87;;;23.00;52.10;;;;;;4978212;28;20465;-86
2021/09/06 09:35:38;;;;;;;27.53;16.23;;;23.20;51.90;;;;;;4962631;28;20766;-85
2021/09/06 09:38:09;;;;;;;28.47;16.97;;;23.20;52.10;;;;;;4992187;28;20910;-85
2021/09/06 09:40:40;;;;;;;30.73;15.20;;;23.40;51.90;;;;;;4998300;28;20409;-85
2021/09/06 09:43:07;;;;;;;23.40;14.53;;;23.20;51.60;;;;;;4981956;28;20485;-85
2021/09/06 09:45:34;;;;;;;23.00;15.63;;;23.30;51.50;;;;;;4965268;28;20431;-87
2021/09/06 09:48:02;;;;;;;29.27;18.10;;;23.30;51.50;;;;;;4962603;28;20463;-85
2021/09/06 09:50:31;;;;;;;22.37;15.43;;;23.40;52.00;;;;;;4962939;28;20530;-84
2021/09/06 09:52:57;;;;;;;24.67;15.30;;;23.50;51.90;;;;;;4978662;28;20431;-85
2021/09/06 09:55:34;;;;;;;23.03;15.37;;;23.70;51.90;;;;;;4962538;28;20493;-86
2021/09/06 09:58:00;;;;;;;23.60;16.93;;;23.60;50.80;;;;;;4961239;28;20929;-86
2021/09/06 10:00:26;;;;;;;23.40;15.07;;;23.90;50.70;;;;;;4983111;28;20506;-86
2021/09/06 10:02:55;;;;;;;22.13;13.00;;;24.00;50.90;;;;;;4974980;28;20475;-85
2021/09/06 10:05:31;;;;;;;21.10;13.97;;;23.90;49.90;;;;;;4967219;28;20246;-86
2021/09/06 10:07:59;;;;;;;19.80;12.50;;;24.00;49.70;;;;;;4961555;28;20485;-86
2021/09/06 10:10:25;;;;;;;25.87;14.50;;;24.00;48.20;;;;;;4962787;28;20437;-86
2021/09/06 10:13:14;;;;;;;24.30;15.00;;;24.20;48.60;;;;;;4980242;28;20586;-85
2021/09/06 10:15:43;;;;;;;16.47;12.23;;;24.20;48.60;;;;;;4963600;28;20431;-85
2021/09/06 10:18:21;;;;;;;25.13;15.30;;;24.30;48.30;;;;;;4962989;28;20506;-86
2021/09/06 10:20:48;;;;;;;22.53;13.23;;;24.40;48.10;;;;;;4964958;28;20431;-86
2021/09/06 10:23:15;;;;;;;20.53;12.73;;;24.40;48.00;;;;;;4963123;28;20439;-86
2021/09/06 10:25:44;;;;;;;21.73;14.77;;;24.40;48.20;;;;;;4969528;28;20487;-85
2021/09/06 10:28:16;;;;;;;22.97;13.77;;;24.40;48.30;;;;;;4984217;28;20534;-86
2021/09/06 10:30:43;;;;;;;20.80;14.70;;;24.50;47.90;;;;;;4981675;28;20447;-85
2021/09/06 10:33:42;;;;;;;22.10;14.33;;;24.40;47.10;;;;;;4965453;28;20562;-87
2021/09/06 10:36:18;;;;;;;23.57;14.00;;;24.50;46.90;;;;;;4955519;28;20427;-86
2021/09/06 10:38:47;;;;;;;22.60;15.50;;;24.60;45.40;;;;;;4991088;28;20493;-86
2021/09/06 10:41:13;;;;;;;21.00;13.10;;;24.80;45.00;;;;;;4992769;28;20926;-86
2021/09/06 10:43:53;;;;;;;18.77;12.53;;;24.60;45.60;;;;;;5012750;28;20928;-85
2021/09/06 10:46:22;;;;;;;20.80;12.90;;;24.80;45.20;;;;;;4998078;28;20594;-86
2021/09/06 10:48:49;;;;;;;19.77;12.67;;;25.00;43.90;;;;;;4995496;28;20485;-86
2021/09/06 10:51:29;;;;;;;15.80;12.73;;;25.00;43.40;;;;;;5011642;28;20483;-87
2021/09/06 10:53:57;;;;;;;18.40;13.10;;;25.10;43.80;;;;;;5014350;28;20431;-86
2021/09/06 10:56:24;;;;;;;22.73;13.50;;;25.30;43.50;;;;;;4998236;28;20418;-85
2021/09/06 10:58:51;;;;;;;18.27;12.00;;;25.30;44.10;;;;;;4995816;28;20490;-86
2021/09/06 11:01:17;;;;;;;17.80;12.37;;;25.10;41.30;;;;;;4998209;28;20510;-86
2021/09/06 11:03:43;;;;;;;15.73;12.50;;;25.20;40.80;;;;;;5008138;28;20430;-86
2021/09/06 11:06:08;;;;;;;16.10;11.37;;;25.10;39.70;;;;;;4984458;28;20287;-86
2021/09/06 11:08:36;;;;;;;16.10;12.00;;;25.30;40.30;;;;;;4964082;28;20200;-85
2021/09/06 11:11:07;;;;;;;18.70;12.30;;;25.50;41.00;;;;;;4962647;28;20565;-86
2021/09/06 11:13:41;;;;;;;15.80;11.77;;;25.60;41.20;;;;;;4961063;28;20770;-86
2021/09/06 11:16:09;;;;;;;14.60;10.20;;;25.70;40.00;;;;;;4961715;28;20417;-86
2021/09/06 11:18:36;;;;;;;17.27;12.77;;;25.70;39.60;;;;;;4979985;28;20433;-86
2021/09/06 11:21:06;;;;;;;17.50;11.43;;;25.70;40.50;;;;;;4962790;28;20427;-87
2021/09/06 11:23:37;;;;;;;18.63;12.80;;;25.90;40.70;;;;;;4961074;28;20447;-86
2021/09/06 11:26:04;;;;;;;17.97;12.10;;;25.90;40.70;;;;;;4978636;28;20422;-86
2021/09/06 11:28:32;;;;;;;17.60;11.17;;;25.80;37.30;;;;;;4979764;28;20451;-87
2021/09/06 11:30:58;;;;;;;14.00;11.23;;;25.80;36.30;;;;;;4962043;28;20415;-86
2021/09/06 11:33:26;;;;;;;14.13;11.57;;;25.90;37.20;;;;;;4962254;28;20463;-86
2021/09/06 11:35:52;;;;;;;13.90;10.90;;;25.80;37.70;;;;;;4963678;28;20779;-87
2021/09/06 11:38:18;;;;;;;15.87;11.80;;;26.00;38.30;;;;;;4994760;28;20462;-87
2021/09/06 11:40:55;;;;;;;16.70;11.70;;;25.90;37.20;;;;;;4982954;28;20194;-85
2021/09/06 11:43:23;;;;;;;17.43;11.93;;;25.70;36.50;;;;;;5003237;28;20438;-84
2021/09/06 11:45:56;;;;;;;17.23;12.80;;;25.80;37.20;;;;;;5005544;28;20511;-85
2021/09/06 11:48:22;;;;;;;23.20;15.17;;;25.80;38.80;;;;;;4987785;28;20976;-85
2021/09/06 11:50:48;;;;;;;23.27;13.67;;;25.90;40.00;;;;;;4988111;28;20415;-85
2021/09/06 11:53:18;;;;;;;16.30;12.13;;;26.00;40.50;;;;;;4988251;28;20224;-86
2021/09/06 11:55:54;;;;;;;17.90;12.80;;;26.00;40.10;;;;;;4987869;28;20179;-86
2021/09/06 11:58:25;;;;;;;15.00;10.93;;;26.10;40.80;;;;;;4987763;28;20423;-85
2021/09/06 12:00:51;;;;;;;16.20;11.60;;;26.30;39.90;;;;;;4989668;28;20422;-85
2021/09/06 12:03:29;;;;;;;16.63;12.53;;;26.30;39.20;;;;;;5007787;28;20440;-84
2021/09/06 12:06:06;;;;;;;17.43;12.03;;;26.20;37.60;;;;;;5004494;28;20183;-85
2021/09/06 12:08:32;;;;;;;17.73;11.80;;;26.30;38.20;;;;;;4993287;28;20459;-85
2021/09/06 12:11:09;;;;;;;17.73;12.63;;;26.60;39.10;;;;;;4993492;28;20411;-85
2021/09/06 12:13:37;;;;;;;21.40;12.83;;;26.40;38.50;;;;;;4993282;28;20468;-84
2021/09/06 12:16:05;;;;;;;19.60;12.50;;;26.40;38.00;;;;;;4987620;28;20408;-85
2021/09/06 12:18:38;;;;;;;15.27;10.90;;;26.60;37.20;;;;;;5006512;28;20422;-85
2021/09/06 12:21:13;;;;;;;14.90;10.77;;;26.70;35.90;;;;;;4988578;28;20425;-84
2021/09/06 12:23:47;;;;;;;16.23;12.33;;;26.80;34.80;;;;;;4987783;28;20663;-85
2021/09/06 12:26:14;;;;;;;17.80;10.80;;;26.80;33.60;;;;;;4988773;28;20901;-85
2021/09/06 12:28:47;;;;;;;15.87;10.80;;;26.80;33.00;;;;;;5005656;28;20524;-85